createdAt,value
2023-02-18T00:02:21.940Z,11.58
2023-02-18T00:07:23.482Z,11.60
2023-02-18T00:12:25.036Z,11.61
2023-02-18T00:17:26.777Z,11.63
2023-02-18T00:22:28.728Z,11.62
2023-02-18T00:27:30.264Z,11.66
2023-02-18T00:32:35.103Z,11.68
2023-02-18T00:37:36.718Z,11.68
2023-02-18T00:42:38.252Z,11.68
2023-02-18T00:47:42.223Z,11.66
2023-02-18T00:52:43.762Z,11.63
2023-02-18T00:57:45.301Z,11.64
2023-02-18T01:02:46.878Z,11.62
2023-02-18T01:07:48.427Z,11.63
2023-02-18T01:12:49.984Z,11.65
2023-02-18T01:17:51.882Z,11.66
2023-02-18T01:22:53.400Z,11.67
2023-02-18T01:27:56.703Z,11.67
2023-02-18T01:32:58.467Z,11.67
2023-02-18T01:38:00.021Z,11.65
2023-02-18T01:43:01.581Z,11.63
2023-02-18T01:48:18.014Z,11.57
2023-02-18T01:53:31.258Z,11.54
2023-02-18T01:58:33.396Z,11.50
2023-02-18T02:03:36.503Z,11.46
2023-02-18T02:08:39.226Z,11.43
2023-02-18T02:14:03.825Z,11.39
2023-02-18T02:19:34.723Z,11.34
2023-02-18T02:24:53.074Z,11.32
2023-02-18T02:29:57.368Z,11.30
2023-02-18T02:35:24.327Z,11.26
2023-02-18T02:40:35.199Z,11.23
2023-02-18T02:46:12.919Z,11.22
2023-02-18T02:51:26.619Z,11.18
2023-02-18T02:56:29.352Z,11.17
2023-02-18T03:02:05.161Z,11.16
2023-02-18T03:07:19.550Z,11.13
2023-02-18T03:12:52.928Z,11.09
2023-02-18T03:17:54.668Z,11.09
2023-02-18T03:23:00.113Z,11.08
2023-02-18T03:28:20.658Z,11.09
2023-02-18T03:33:28.488Z,11.09
2023-02-18T03:38:37.942Z,11.10
2023-02-18T03:43:41.601Z,11.11
2023-02-18T03:48:43.610Z,11.13
2023-02-18T03:53:45.717Z,11.11
2023-02-18T03:58:47.788Z,11.08
2023-02-18T04:03:49.322Z,11.07
2023-02-18T04:08:51.188Z,11.05
2023-02-18T04:13:53.049Z,11.00
2023-02-18T04:18:54.603Z,10.98
2023-02-18T04:23:56.318Z,10.98
2023-02-18T04:28:57.955Z,10.97
2023-02-18T04:33:59.564Z,10.97
2023-02-18T04:39:01.109Z,10.94
2023-02-18T04:44:02.804Z,10.94
2023-02-18T04:49:04.384Z,10.93
2023-02-18T04:54:05.954Z,10.92
2023-02-18T04:59:07.505Z,10.92
2023-02-18T05:04:09.428Z,10.90
2023-02-18T05:09:11.771Z,10.90
2023-02-18T05:14:13.996Z,10.91
2023-02-18T05:19:16.125Z,10.89
2023-02-18T05:24:19.812Z,10.88
2023-02-18T05:29:21.392Z,10.85
2023-02-18T05:34:22.890Z,10.82
2023-02-18T05:39:24.432Z,10.83
2023-02-18T05:44:32.393Z,10.84
2023-02-18T05:49:35.080Z,10.88
2023-02-18T05:54:37.777Z,10.91
2023-02-18T05:59:39.397Z,10.95
2023-02-18T06:04:41.015Z,10.94
2023-02-18T06:09:42.520Z,10.95
2023-02-18T06:14:44.208Z,10.89
2023-02-18T06:19:45.944Z,10.88
2023-02-18T06:24:47.489Z,10.90
2023-02-18T06:29:48.991Z,10.90
2023-02-18T06:34:50.482Z,10.93
2023-02-18T06:39:52.121Z,10.98
2023-02-18T06:44:53.670Z,11.03
2023-02-18T06:49:55.213Z,11.11
2023-02-18T06:54:56.754Z,11.17
2023-02-18T06:59:58.661Z,11.24
2023-02-18T07:05:00.283Z,11.35
2023-02-18T07:10:02.235Z,11.43
2023-02-18T07:15:04.439Z,11.56
2023-02-18T07:20:06.981Z,11.65
2023-02-18T07:25:08.536Z,11.71
2023-02-18T07:30:10.565Z,11.81
2023-02-18T07:35:16.000Z,11.91
2023-02-18T07:40:21.556Z,12.01
2023-02-18T07:45:23.118Z,12.09
2023-02-18T07:50:24.720Z,12.15
2023-02-18T07:55:46.299Z,12.18
2023-02-18T08:00:49.544Z,12.24
2023-02-18T08:05:51.850Z,12.31
2023-02-18T08:10:55.341Z,12.36
2023-02-18T08:15:57.704Z,12.43
2023-02-18T08:21:00.375Z,12.55
2023-02-18T08:26:02.036Z,12.67
2023-02-18T08:31:04.043Z,12.72
2023-02-18T08:36:07.860Z,12.71
2023-02-18T08:41:09.970Z,12.76
2023-02-18T08:46:16.533Z,12.82
2023-02-18T08:51:34.082Z,12.93
2023-02-18T08:56:37.897Z,12.94
2023-02-18T09:01:39.470Z,13.06
2023-02-18T09:06:41.080Z,13.08
2023-02-18T09:11:43.172Z,13.02
2023-02-18T09:16:44.693Z,12.99
2023-02-18T09:21:46.277Z,13.02
2023-02-18T09:26:47.831Z,13.19
2023-02-18T09:31:49.513Z,13.43
2023-02-18T09:36:51.086Z,13.48
2023-02-18T09:42:02.568Z,13.61
2023-02-18T09:47:11.429Z,13.58
2023-02-18T09:52:26.819Z,13.54
2023-02-18T09:57:44.873Z,13.56
2023-02-18T10:02:58.622Z,13.46
2023-02-18T10:08:06.713Z,13.64
2023-02-18T10:13:15.240Z,13.65
2023-02-18T10:23:41.736Z,13.74
2023-02-18T10:28:43.528Z,13.64
2023-02-18T10:34:17.533Z,13.47
2023-02-18T10:40:11.261Z,13.47
2023-02-18T10:45:37.713Z,13.51
2023-02-18T10:50:42.090Z,13.60
2023-02-18T10:55:46.341Z,13.76
2023-02-18T11:00:47.875Z,13.83
2023-02-18T11:05:57.623Z,14.05
2023-02-18T11:11:09.625Z,14.22
2023-02-18T11:16:12.541Z,14.34
2023-02-18T11:21:32.525Z,14.47
2023-02-18T11:26:35.533Z,14.47
2023-02-18T11:31:45.152Z,14.53
2023-02-18T11:36:48.230Z,14.73
2023-02-18T11:41:56.961Z,14.94
2023-02-18T11:47:16.656Z,14.85
2023-02-18T11:52:20.499Z,14.76
2023-02-18T11:57:26.453Z,14.93
2023-02-18T12:02:37.940Z,15.06
2023-02-18T12:07:48.892Z,15.14
2023-02-18T12:12:59.636Z,15.10
2023-02-18T12:18:16.287Z,14.98
2023-02-18T12:23:41.034Z,14.77
2023-02-18T12:28:51.503Z,14.62
2023-02-18T12:34:21.211Z,14.46
2023-02-18T12:39:31.767Z,14.43
2023-02-18T12:44:45.902Z,14.54
2023-02-18T12:50:06.387Z,14.66
2023-02-18T12:55:32.095Z,14.54
2023-02-18T13:00:48.630Z,14.54
2023-02-18T13:05:55.378Z,14.45
2023-02-18T13:11:09.089Z,14.26
2023-02-18T13:16:13.372Z,14.34
2023-02-18T13:21:16.826Z,14.54
2023-02-18T13:26:19.317Z,14.45
2023-02-18T13:31:44.852Z,14.36
2023-02-18T13:37:20.008Z,13.95
2023-02-18T13:42:32.038Z,13.63
2023-02-18T13:47:37.336Z,13.48
2023-02-18T13:52:38.907Z,13.56
2023-02-18T13:57:40.740Z,13.69
2023-02-18T14:02:57.779Z,13.86
2023-02-18T14:08:14.398Z,13.98
2023-02-18T14:13:39.659Z,14.18
2023-02-18T14:18:41.141Z,14.20
2023-02-18T14:23:51.808Z,14.31
2023-02-18T14:29:01.795Z,14.36
2023-02-18T14:34:18.543Z,14.28
2023-02-18T14:39:45.247Z,14.06
2023-02-18T14:45:17.126Z,13.95
2023-02-18T14:50:20.551Z,13.87
2023-02-18T14:55:49.890Z,13.74
2023-02-18T15:00:51.395Z,13.69
2023-02-18T15:05:52.973Z,13.66
2023-02-18T15:11:07.462Z,13.64
2023-02-18T15:16:14.352Z,13.57
2023-02-18T15:21:30.449Z,13.55
2023-02-18T15:26:32.453Z,13.51
2023-02-18T15:31:39.228Z,13.44
2023-02-18T15:36:40.812Z,13.24
2023-02-18T15:41:42.403Z,13.12
2023-02-18T15:46:44.000Z,13.03
2023-02-18T15:51:46.029Z,12.88
2023-02-18T15:56:52.233Z,12.76
2023-02-18T16:01:57.126Z,12.68
2023-02-18T16:07:20.861Z,12.60
2023-02-18T16:12:30.740Z,12.49
2023-02-18T16:17:32.392Z,12.43
2023-02-18T16:22:43.064Z,12.33
2023-02-18T16:27:55.236Z,12.22
2023-02-18T16:32:57.964Z,12.09
2023-02-18T16:37:59.920Z,11.97
2023-02-18T16:43:09.488Z,11.84
2023-02-18T16:48:21.518Z,11.74
2023-02-18T16:53:23.734Z,11.66
2023-02-18T16:58:25.347Z,11.58
2023-02-18T17:03:26.909Z,11.50
2023-02-18T17:08:28.420Z,11.38
2023-02-18T17:13:31.558Z,11.34
2023-02-18T17:18:33.090Z,11.26
2023-02-18T17:23:34.593Z,11.17
2023-02-18T17:28:36.086Z,11.10
2023-02-18T17:33:38.651Z,11.08
2023-02-18T17:38:40.430Z,11.03
2023-02-18T17:43:42.533Z,10.99
2023-02-18T17:48:45.459Z,10.98
2023-02-18T17:53:47.093Z,10.96
2023-02-18T17:58:49.136Z,10.91
2023-02-18T18:03:50.654Z,10.87
2023-02-18T18:08:52.179Z,10.85
2023-02-18T18:13:53.724Z,10.82
2023-02-18T18:18:55.269Z,10.76
2023-02-18T18:23:56.996Z,10.74
2023-02-18T18:28:58.703Z,10.69
2023-02-18T18:34:01.421Z,10.65
2023-02-18T18:39:03.040Z,10.61
2023-02-18T18:44:04.855Z,10.57
2023-02-18T18:49:06.463Z,10.51
2023-02-18T18:54:11.618Z,10.46
2023-02-18T18:59:13.133Z,10.43
2023-02-18T19:04:14.871Z,10.37
2023-02-18T19:09:16.428Z,10.32
2023-02-18T19:14:17.954Z,10.25
2023-02-18T19:19:20.995Z,10.19
2023-02-18T19:24:22.494Z,10.11
2023-02-18T19:29:26.393Z,10.07
2023-02-18T19:34:27.895Z,9.98
2023-02-18T19:39:29.433Z,9.90
2023-02-18T19:44:34.453Z,9.83
2023-02-18T19:49:35.978Z,9.78
2023-02-18T19:54:37.522Z,9.72
2023-02-18T19:59:40.016Z,9.69
2023-02-18T20:04:42.436Z,9.66
2023-02-18T20:09:44.116Z,9.64
2023-02-18T20:14:46.035Z,9.63
2023-02-18T20:19:47.628Z,9.59
2023-02-18T20:24:49.247Z,9.58
2023-02-18T20:29:51.453Z,9.52
2023-02-18T20:34:53.063Z,9.47
2023-02-18T20:39:54.554Z,9.43
2023-02-18T20:44:56.093Z,9.40
2023-02-18T20:49:57.622Z,9.38
2023-02-18T20:54:59.189Z,9.36
2023-02-18T21:00:00.746Z,9.33
2023-02-18T21:05:02.304Z,9.32
2023-02-18T21:10:04.416Z,9.32
2023-02-18T21:15:06.559Z,9.29
2023-02-18T21:20:08.406Z,9.22
2023-02-18T21:25:09.967Z,9.20
2023-02-18T21:30:11.696Z,9.15
2023-02-18T21:35:13.250Z,9.13
2023-02-18T21:40:14.883Z,9.09
2023-02-18T21:45:17.150Z,9.07
2023-02-18T21:50:19.136Z,9.06
2023-02-18T21:55:20.724Z,9.02
2023-02-18T22:00:22.801Z,9.01
2023-02-18T22:05:26.076Z,9.00
2023-02-18T22:10:27.586Z,9.00
2023-02-18T22:15:29.096Z,8.80
2023-02-18T22:20:30.610Z,8.70
2023-02-18T22:25:32.142Z,8.74
2023-02-18T22:30:33.738Z,8.79
2023-02-18T22:35:35.411Z,8.82
2023-02-18T22:40:36.941Z,8.83
2023-02-18T22:45:38.512Z,8.87
2023-02-18T22:50:42.193Z,8.89
2023-02-18T22:55:44.080Z,8.89
2023-02-18T23:00:45.641Z,8.90
2023-02-18T23:05:47.455Z,8.89
2023-02-18T23:11:00.174Z,8.87
2023-02-18T23:16:04.862Z,8.87
2023-02-18T23:21:22.777Z,8.89
2023-02-18T23:26:25.765Z,8.86
2023-02-18T23:31:27.973Z,8.82
2023-02-18T23:36:31.712Z,8.75
2023-02-18T23:41:33.229Z,8.65
2023-02-18T23:46:35.164Z,8.44
2023-02-18T23:51:36.688Z,8.38
2023-02-18T23:56:38.383Z,8.46
